KCLM

William R Fairchild International Airport

Port Angeles, Washington, USA
METAR KCLM 141317Z AUTO 00000KT 1 1/2SM BR CLR 12/10 A2997 RMK AO2 T01170100
Observed Flight Rules
Aug-14 @ 13:17 UTC (25 minutes ago) Instrument Flight Rules
Visibility Clouds Conditions
1 1/2 miles
  • Clear skies
  • Mist
Temperatures Readings
Current 12°C / 54°F
Dewpoint 10°C / 50°F
Humidity 88%
Altimeter 29.97" Hg
Pressure 1015 hPa
Elevation 85
METAR KCLM 141317Z AUTO 00000KT 1 1/2SM BR CLR 12/10 A2997 RMK AO2 T01170100
Observed Flight Rules
Aug-14 @ 13:17 UTC
(25 minutes ago)
IFR
Clouds
  • Clear skies
Conditions
  • Mist
Temperature Dewpoint
12°C / 54°F 10°C / 50°F
Humidity Altimeter Pressure
88% 29.97" Hg 1015 hPa